Time;durP1;ratioP1;P1;durP2;ratioP2;P2;SDS_P1;SDS_P2;PMS_P1;PMS_P2;Temp;Humidity;BMP_temperature;BMP_pressure;BME280_temperature;BME280_humidity;BME280_pressure;Samples;Min_cycle;Max_cycle;Signal;HPM_P1;HPM_P2
2022/09/21 12:20:25;;;;;;;2.00;0.30;;;18.00;99.90;;;;;;6156055;23;20241;-70
2022/09/21 12:22:59;;;;;;;1.38;0.50;;;18.30;99.30;;;;;;6157344;23;20629;-69
2022/09/21 12:25:34;;;;;;;0.68;0.30;;;18.30;99.90;;;;;;6157563;23;20198;-70
2022/09/21 12:28:07;;;;;;;1.58;0.35;;;18.20;99.50;;;;;;6152646;23;20557;-69
2022/09/21 12:30:36;;;;;;;2.25;0.35;;;18.60;99.60;;;;;;6154894;23;20260;-69
2022/09/21 12:33:11;;;;;;;1.60;0.30;;;18.80;99.90;;;;;;6155300;23;20212;-68
2022/09/21 12:35:43;;;;;;;0.80;0.30;;;18.80;99.90;;;;;;6154705;23;20212;-68
2022/09/21 12:38:16;;;;;;;3.90;0.40;;;18.80;98.50;;;;;;6155168;23;20634;-68
2022/09/21 12:40:48;;;;;;;1.35;0.40;;;18.80;98.90;;;;;;6155685;23;20182;-68
2022/09/21 12:43:26;;;;;;;1.25;0.45;;;18.90;97.60;;;;;;6155065;23;20178;-69
2022/09/21 12:45:56;;;;;;;1.30;0.40;;;19.10;98.40;;;;;;6155882;23;20276;-68
2022/09/21 12:48:30;;;;;;;0.47;0.20;;;19.30;99.60;;;;;;6155905;23;20182;-68
2022/09/21 12:51:04;;;;;;;1.05;0.30;;;19.00;96.80;;;;;;6154147;23;20178;-68
2022/09/21 12:53:36;;;;;;;0.95;0.40;;;18.80;97.40;;;;;;6154870;23;20212;-69
2022/09/21 12:56:06;;;;;;;1.30;0.50;;;18.60;99.60;;;;;;6155911;23;20240;-68
2022/09/21 12:58:59;;;;;;;1.55;0.43;;;18.40;99.90;;;;;;6156372;23;20182;-68
2022/09/21 13:01:32;;;;;;;1.52;0.43;;;18.20;99.90;;;;;;6156310;23;20184;-68
2022/09/21 13:04:12;;;;;;;0.95;0.40;;;18.40;99.90;;;;;;6156086;23;20178;-68
2022/09/21 13:07:08;;;;;;;0.70;0.40;;;18.50;99.90;;;;;;6156268;23;20219;-67
2022/09/21 13:09:40;;;;;;;0.50;0.30;;;17.90;99.90;;;;;;6156147;23;20189;-68
2022/09/21 13:12:10;;;;;;;0.40;0.30;;;17.50;99.90;;;;;;6156172;23;20246;-68
2022/09/21 13:14:43;;;;;;;0.60;0.47;;;17.20;99.90;;;;;;6155216;23;20646;-68
2022/09/21 13:17:22;;;;;;;1.60;0.50;;;17.10;99.90;;;;;;6155914;23;20181;-68
2022/09/21 13:20:01;;;;;;;1.63;0.60;;;17.00;99.90;;;;;;6184051;23;20301;-67
2022/09/21 13:22:32;;;;;;;1.70;0.23;;;16.90;99.90;;;;;;6185980;23;20509;-68
2022/09/21 13:25:04;;;;;;;0.87;0.30;;;16.80;99.90;;;;;;6185946;23;20197;-68
2022/09/21 13:28:00;;;;;;;0.67;0.50;;;16.70;99.90;;;;;;6186612;23;20209;-67
2022/09/21 13:30:33;;;;;;;0.70;0.40;;;16.80;99.90;;;;;;6185365;23;20181;-68
2022/09/21 13:33:02;;;;;;;0.73;0.40;;;16.80;99.90;;;;;;6186271;23;20177;-68
2022/09/21 13:36:00;;;;;;;0.50;0.40;;;17.00;99.90;;;;;;6185665;23;20208;-67
2022/09/21 13:38:33;;;;;;;1.13;0.40;;;17.00;99.90;;;;;;6186148;23;20212;-68
2022/09/21 13:41:02;;;;;;;3.70;0.40;;;16.90;99.90;;;;;;6186077;23;20545;-67
2022/09/21 13:44:04;;;;;;;2.43;0.50;;;17.00;99.90;;;;;;6186105;23;20177;-67
2022/09/21 13:46:56;;;;;;;0.73;0.40;;;16.90;99.90;;;;;;6186222;23;20211;-67
2022/09/21 13:49:43;;;;;;;2.60;0.43;;;17.00;99.90;;;;;;6186158;23;20272;-68
2022/09/21 13:52:38;;;;;;;1.53;0.50;;;16.80;99.90;;;;;;6185651;23;20181;-67
2022/09/21 13:55:29;;;;;;;1.00;0.40;;;16.90;99.90;;;;;;6185845;23;20208;-67
2022/09/21 13:57:58;;;;;;;2.17;0.40;;;16.90;99.90;;;;;;6186167;23;20244;-67
2022/09/21 14:00:34;;;;;;;2.03;0.30;;;17.10;99.90;;;;;;6185279;23;20641;-67
2022/09/21 14:03:05;;;;;;;0.43;0.30;;;17.30;99.90;;;;;;6185842;23;20180;-68
2022/09/21 14:05:35;;;;;;;1.23;0.40;;;17.50;99.90;;;;;;6185532;23;20529;-67
2022/09/21 14:08:06;;;;;;;0.60;0.43;;;17.50;99.90;;;;;;6186518;23;20215;-68
2022/09/21 14:10:37;;;;;;;2.20;0.40;;;17.60;99.90;;;;;;6185734;23;20658;-67
2022/09/21 14:13:23;;;;;;;1.57;0.57;;;17.70;99.90;;;;;;6186184;23;20192;-67
2022/09/21 14:15:51;;;;;;;1.23;0.40;;;17.90;99.90;;;;;;6186198;23;20264;-67
2022/09/21 14:18:35;;;;;;;3.30;0.60;;;17.90;98.90;;;;;;6185840;23;20196;-68
2022/09/21 14:21:20;;;;;;;2.10;0.50;;;18.00;99.50;;;;;;6185913;23;20508;-67
2022/09/21 14:24:10;;;;;;;1.92;0.43;;;18.30;99.80;;;;;;6185898;23;20177;-67
2022/09/21 14:26:55;;;;;;;0.73;0.50;;;18.50;98.80;;;;;;6184884;23;20597;-68
2022/09/21 14:29:26;;;;;;;2.08;0.60;;;18.80;98.60;;;;;;6185767;23;20177;-68
2022/09/21 14:31:56;;;;;;;1.60;0.40;;;18.90;98.30;;;;;;6185370;23;20208;-68
2022/09/21 14:34:26;;;;;;;3.17;0.40;;;19.00;97.90;;;;;;6185363;23;20177;-68
2022/09/21 14:36:58;;;;;;;0.90;0.47;;;19.30;98.30;;;;;;6184437;23;20715;-67
2022/09/21 14:39:30;;;;;;;0.68;0.43;;;19.50;98.40;;;;;;6185359;23;20633;-68
2022/09/21 14:42:03;;;;;;;0.70;0.50;;;19.40;97.20;;;;;;6184376;23;20232;-68
2022/09/21 14:44:34;;;;;;;1.05;0.40;;;19.20;97.60;;;;;;6185512;23;20177;-68
2022/09/21 14:47:16;;;;;;;1.25;0.50;;;19.30;97.40;;;;;;6185539;23;20213;-68
2022/09/21 14:50:08;;;;;;;3.40;0.40;;;19.20;97.80;;;;;;6185349;23;20181;-67
2022/09/21 14:52:49;;;;;;;0.60;0.40;;;18.90;97.50;;;;;;6186006;23;20177;-68
2022/09/21 14:55:20;;;;;;;1.23;0.40;;;18.60;97.40;;;;;;6185944;23;20204;-68
2022/09/21 14:58:13;;;;;;;1.95;0.40;;;18.70;98.20;;;;;;6185380;23;20181;-67
2022/09/21 15:00:42;;;;;;;0.68;0.30;;;18.60;99.10;;;;;;6185800;23;20185;-68
2022/09/21 15:03:35;;;;;;;1.45;0.80;;;18.60;98.70;;;;;;6185049;23;20268;-68
2022/09/21 15:11:59;;;;;;;1.03;0.20;;;17.60;99.20;;;;;;6185293;23;20181;-68
2022/09/21 15:14:34;;;;;;;0.90;0.47;;;17.70;99.30;;;;;;6185456;23;20176;-68
2022/09/21 15:17:18;;;;;;;1.25;0.30;;;17.60;99.90;;;;;;6185383;23;20204;-68
2022/09/21 15:19:45;;;;;;;2.47;0.50;;;17.60;99.30;;;;;;6185019;23;20642;-68
2022/09/21 15:22:17;;;;;;;2.63;0.40;;;17.60;99.90;;;;;;6185157;23;20239;-68
2022/09/21 15:24:50;;;;;;;0.83;0.40;;;17.50;99.70;;;;;;6185177;23;20264;-68
2022/09/21 15:27:18;;;;;;;0.60;0.40;;;17.60;99.50;;;;;;6185747;23;20204;-68
2022/09/21 15:29:48;;;;;;;0.50;0.30;;;17.60;99.90;;;;;;6185792;23;20205;-68
2022/09/21 15:32:27;;;;;;;1.13;0.80;;;17.60;99.90;;;;;;6185388;23;20184;-68
2022/09/21 15:35:01;;;;;;;1.63;0.30;;;17.60;99.40;;;;;;6185049;23;20191;-68
2022/09/21 15:37:29;;;;;;;2.00;0.30;;;17.60;99.90;;;;;;6184887;23;20668;-68
2022/09/21 15:40:05;;;;;;;0.38;0.30;;;17.80;99.90;;;;;;6185398;23;20181;-67
2022/09/21 15:42:35;;;;;;;0.52;0.38;;;17.80;99.90;;;;;;6185168;23;20268;-68
2022/09/21 15:45:15;;;;;;;0.47;0.38;;;17.80;99.90;;;;;;6185070;23;20507;-68
2022/09/21 15:47:44;;;;;;;1.58;0.40;;;17.90;99.90;;;;;;6185487;23;20208;-68
2022/09/21 15:50:16;;;;;;;1.33;0.40;;;18.00;99.90;;;;;;6185245;23;20648;-68
2022/09/21 15:52:48;;;;;;;1.05;0.30;;;18.10;99.90;;;;;;6185506;23;20184;-68
2022/09/21 15:55:20;;;;;;;2.08;0.38;;;18.20;99.90;;;;;;6186799;23;20509;-68
2022/09/21 15:57:49;;;;;;;1.38;0.30;;;18.10;99.90;;;;;;6187064;23;20194;-68
2022/09/21 16:00:23;;;;;;;1.13;0.40;;;18.00;99.90;;;;;;6186766;23;20177;-68
2022/09/21 16:03:05;;;;;;;0.43;0.30;;;18.10;99.90;;;;;;6187332;23;20177;-67
2022/09/21 16:05:41;;;;;;;1.42;0.50;;;18.10;99.90;;;;;;6186331;23;20680;-67
2022/09/21 16:08:21;;;;;;;2.50;0.50;;;18.10;99.90;;;;;;6187013;23;20215;-67
2022/09/21 16:10:48;;;;;;;0.65;0.40;;;18.20;99.90;;;;;;6187607;23;20235;-67
2022/09/21 16:16:07;;;;;;;1.40;0.50;;;18.20;99.90;;;;;;6187302;23;20204;-67
2022/09/21 16:18:42;;;;;;;0.63;0.40;;;18.10;99.90;;;;;;6187037;23;20189;-68
2022/09/21 16:21:25;;;;;;;0.40;0.30;;;18.00;99.90;;;;;;6187289;23;20176;-68
2022/09/21 16:23:54;;;;;;;1.80;0.57;;;17.70;99.90;;;;;;6184119;23;20232;-68
2022/09/21 16:26:24;;;;;;;0.95;0.30;;;17.30;99.90;;;;;;6187335;23;20201;-67
2022/09/21 16:28:58;;;;;;;2.17;0.40;;;17.20;99.90;;;;;;6187052;23;20291;-67
2022/09/21 16:31:34;;;;;;;0.73;0.30;;;17.40;99.90;;;;;;6187293;23;20184;-68
2022/09/21 16:34:18;;;;;;;0.53;0.23;;;17.50;99.90;;;;;;6187366;23;20212;-67
2022/09/21 16:36:48;;;;;;;1.73;0.40;;;17.20;99.90;;;;;;6187399;23;20207;-67
2022/09/21 16:39:17;;;;;;;0.63;0.30;;;16.80;99.90;;;;;;6187422;23;20181;-67
2022/09/21 16:41:48;;;;;;;1.30;0.40;;;16.70;99.90;;;;;;6187183;23;20184;-67
2022/09/21 16:44:19;;;;;;;1.17;0.40;;;16.80;99.90;;;;;;6187613;23;20184;-68
2022/09/21 16:46:51;;;;;;;1.10;0.50;;;16.90;99.90;;;;;;6186786;23;20202;-68
2022/09/21 16:49:20;;;;;;;0.63;0.40;;;16.70;99.90;;;;;;6186642;23;20280;-68
2022/09/21 16:51:48;;;;;;;0.80;0.40;;;16.60;99.90;;;;;;6186780;23;20668;-69
2022/09/21 16:54:16;;;;;;;1.63;0.43;;;16.70;99.90;;;;;;6186648;23;20648;-68
2022/09/21 16:56:44;;;;;;;1.73;0.33;;;16.70;99.90;;;;;;6186944;23;20219;-68
2022/09/21 16:59:15;;;;;;;1.20;0.30;;;16.60;99.90;;;;;;6186225;23;20649;-68
2022/09/21 17:01:42;;;;;;;1.40;0.70;;;16.60;99.90;;;;;;6186576;23;20625;-68
2022/09/21 17:04:12;;;;;;;1.37;0.30;;;16.70;99.90;;;;;;6186763;23;20251;-68
2022/09/21 17:06:40;;;;;;;0.70;0.40;;;16.70;99.90;;;;;;6186472;23;20207;-68
2022/09/21 17:09:18;;;;;;;0.77;0.30;;;16.70;99.90;;;;;;6186875;23;20209;-68
2022/09/21 17:11:46;;;;;;;0.80;0.43;;;16.60;99.90;;;;;;6187007;23;20209;-68
2022/09/21 17:14:15;;;;;;;1.03;0.40;;;16.50;99.90;;;;;;6187086;23;20502;-68
2022/09/21 17:16:47;;;;;;;0.90;0.57;;;16.40;99.90;;;;;;6186512;23;20204;-68
2022/09/21 17:19:15;;;;;;;0.80;0.40;;;16.30;99.90;;;;;;6186275;23;20193;-69
2022/09/21 17:21:44;;;;;;;1.30;0.60;;;16.20;99.90;;;;;;6186999;23;20177;-68
2022/09/21 17:24:11;;;;;;;1.30;0.70;;;16.10;99.90;;;;;;6186788;23;20212;-68
2022/09/21 17:26:38;;;;;;;3.13;0.63;;;15.80;99.90;;;;;;6186498;23;20209;-68
2022/09/21 17:29:25;;;;;;;1.30;0.50;;;15.80;99.90;;;;;;6186457;23;20208;-68
2022/09/21 17:31:53;;;;;;;4.07;1.00;;;15.60;99.90;;;;;;6186464;23;20259;-68
2022/09/21 17:34:23;;;;;;;1.37;0.60;;;15.50;99.90;;;;;;6186345;23;20693;-68
2022/09/21 17:36:50;;;;;;;3.03;0.60;;;15.30;99.90;;;;;;6186263;23;20225;-69
2022/09/21 17:39:19;;;;;;;1.53;0.53;;;15.30;99.90;;;;;;6186907;23;20177;-68
2022/09/21 17:41:52;;;;;;;1.20;0.50;;;15.20;99.90;;;;;;6186320;23;20502;-68
2022/09/21 17:44:36;;;;;;;0.90;0.50;;;15.00;99.90;;;;;;6186332;23;20181;-69
2022/09/21 17:47:11;;;;;;;1.97;0.60;;;14.80;99.90;;;;;;6186621;23;20185;-68
2022/09/21 17:49:39;;;;;;;2.53;0.50;;;14.80;99.90;;;;;;6186556;23;20290;-68
2022/09/21 17:54:57;;;;;;;0.43;0.33;;;14.60;99.90;;;;;;6186453;23;20220;-68
2022/09/21 17:57:39;;;;;;;2.33;1.13;;;14.60;99.90;;;;;;6186668;23;20177;-68
2022/09/21 18:00:13;;;;;;;2.27;0.50;;;14.40;99.90;;;;;;6186624;23;20265;-68
2022/09/21 18:02:40;;;;;;;0.83;0.40;;;14.30;99.90;;;;;;6186634;23;20177;-68
2022/09/21 18:05:17;;;;;;;3.10;0.50;;;14.20;99.90;;;;;;6185929;23;20681;-68
2022/09/21 18:07:44;;;;;;;0.73;0.50;;;14.00;99.90;;;;;;6186476;23;20201;-68
2022/09/21 18:10:14;;;;;;;1.27;0.60;;;13.90;99.90;;;;;;6186480;23;20252;-68
2022/09/21 18:13:01;;;;;;;1.30;0.53;;;13.80;99.90;;;;;;6186014;23;20557;-68
2022/09/21 18:15:35;;;;;;;1.30;0.87;;;13.60;99.90;;;;;;6186498;23;20553;-68
2022/09/21 18:18:12;;;;;;;3.17;0.90;;;13.50;99.90;;;;;;6186541;23;20188;-69
2022/09/21 18:20:52;;;;;;;2.23;0.97;;;13.50;99.90;;;;;;6185815;23;20263;-69
2022/09/21 18:23:30;;;;;;;1.33;0.83;;;13.40;99.90;;;;;;6186285;23;20181;-68
2022/09/21 18:25:58;;;;;;;4.03;1.00;;;13.40;99.90;;;;;;6186099;23;20197;-68
2022/09/21 18:28:37;;;;;;;5.10;1.60;;;13.30;99.90;;;;;;6185417;23;20205;-68
2022/09/21 18:31:25;;;;;;;2.83;1.30;;;13.20;99.90;;;;;;6185472;23;20199;-68
2022/09/21 18:33:59;;;;;;;2.80;1.40;;;13.10;99.90;;;;;;6184285;23;20525;-67
2022/09/21 18:36:32;;;;;;;3.50;1.70;;;13.10;99.90;;;;;;6182529;23;20533;-68
2022/09/21 18:39:09;;;;;;;5.00;1.53;;;13.10;99.90;;;;;;6184220;23;20244;-68
2022/09/21 18:41:44;;;;;;;3.50;2.20;;;13.10;99.90;;;;;;6184280;23;20187;-68
2022/09/21 18:44:16;;;;;;;5.50;1.63;;;13.00;99.90;;;;;;6184529;23;20184;-69
2022/09/21 18:46:58;;;;;;;3.33;1.93;;;12.90;99.90;;;;;;6184178;23;20309;-68
2022/09/21 18:49:48;;;;;;;5.37;2.93;;;12.80;99.90;;;;;;6184619;23;20208;-66
2022/09/21 18:52:27;;;;;;;5.37;2.83;;;12.80;99.90;;;;;;6184512;23;20181;-68
2022/09/21 18:54:54;;;;;;;7.10;3.60;;;12.60;99.90;;;;;;6184587;23;20199;-66
2022/09/21 18:57:22;;;;;;;6.93;3.60;;;12.60;99.90;;;;;;6184170;23;20715;-68
2022/09/21 18:59:49;;;;;;;5.33;2.97;;;12.50;99.90;;;;;;6184269;23;20181;-68
2022/09/21 19:02:19;;;;;;;8.33;3.73;;;12.40;99.90;;;;;;6184935;23;20181;-67
2022/09/21 19:04:47;;;;;;;9.50;3.70;;;12.30;99.90;;;;;;6184201;23;20181;-67
2022/09/21 19:07:26;;;;;;;5.90;3.40;;;12.20;99.90;;;;;;6184136;23;20653;-68
2022/09/21 19:10:04;;;;;;;6.60;3.57;;;12.20;99.90;;;;;;6183402;23;20255;-67
2022/09/21 19:12:48;;;;;;;9.93;4.30;;;12.20;99.90;;;;;;6184053;23;20505;-67
2022/09/21 19:15:22;;;;;;;8.10;3.70;;;12.30;99.90;;;;;;6184749;23;20211;-67
2022/09/21 19:18:03;;;;;;;7.70;3.30;;;12.30;99.90;;;;;;6184393;23;20532;-67
2022/09/21 19:20:56;;;;;;;6.40;3.17;;;12.30;99.90;;;;;;6184698;23;20260;-67
2022/09/21 19:23:36;;;;;;;9.17;3.13;;;12.30;99.90;;;;;;6178014;23;20203;-68
2022/09/21 19:26:10;;;;;;;6.90;3.87;;;12.10;99.90;;;;;;6183516;23;20201;-67
2022/09/21 19:28:54;;;;;;;10.40;3.17;;;12.00;99.90;;;;;;6183069;23;20215;-67
2022/09/21 19:31:21;;;;;;;7.53;3.03;;;11.80;99.90;;;;;;6183486;23;20191;-68
2022/09/21 19:33:48;;;;;;;6.07;3.13;;;11.80;99.90;;;;;;6184046;23;20248;-68
2022/09/21 19:36:15;;;;;;;9.60;3.83;;;11.70;99.90;;;;;;6183663;23;20212;-68
2022/09/21 19:38:44;;;;;;;6.93;3.47;;;11.60;99.90;;;;;;6183860;23;20189;-68
2022/09/21 19:41:29;;;;;;;9.30;3.77;;;11.50;99.90;;;;;;6184098;23;20657;-68
2022/09/21 19:44:01;;;;;;;10.07;4.07;;;11.40;99.90;;;;;;6183917;23;20188;-68
2022/09/21 19:46:36;;;;;;;9.87;3.30;;;11.40;99.90;;;;;;6184236;23;20197;-68
2022/09/21 19:49:09;;;;;;;6.60;3.03;;;11.50;99.90;;;;;;6181350;23;20204;-68
2022/09/21 19:51:44;;;;;;;6.97;3.60;;;11.60;99.90;;;;;;6181585;23;20177;-68
2022/09/21 19:59:44;;;;;;;6.83;3.03;;;11.60;99.90;;;;;;6183760;23;20196;-68
2022/09/21 20:02:14;;;;;;;9.00;4.40;;;11.50;99.90;;;;;;6183797;23;20212;-68
2022/09/21 20:04:48;;;;;;;9.40;4.03;;;11.30;99.90;;;;;;6182980;23;20187;-68
2022/09/21 20:07:25;;;;;;;7.10;3.80;;;11.30;99.90;;;;;;6183843;23;20180;-68
2022/09/21 20:10:07;;;;;;;11.47;4.50;;;11.30;99.90;;;;;;6184436;23;20209;-68
2022/09/21 20:12:41;;;;;;;10.03;3.83;;;11.30;99.90;;;;;;6182003;23;20200;-68
2022/09/21 20:15:14;;;;;;;6.23;3.30;;;11.10;99.90;;;;;;6184241;23;20204;-68
2022/09/21 20:17:47;;;;;;;6.70;3.73;;;11.20;99.90;;;;;;6184088;23;20312;-68
2022/09/21 20:20:19;;;;;;;6.97;3.90;;;11.20;99.90;;;;;;6183972;23;20182;-68
2022/09/21 20:22:47;;;;;;;7.27;3.60;;;11.10;99.90;;;;;;6183514;23;20202;-68
2022/09/21 20:25:21;;;;;;;5.70;3.23;;;11.00;99.90;;;;;;6183931;23;20520;-68
2022/09/21 20:27:50;;;;;;;6.77;3.17;;;11.00;99.90;;;;;;6183969;23;20177;-68
2022/09/21 20:30:21;;;;;;;9.23;3.70;;;11.00;99.90;;;;;;6184295;23;20259;-68
2022/09/21 20:32:51;;;;;;;5.33;3.40;;;11.00;99.90;;;;;;6183982;23;20181;-68
2022/09/21 20:35:22;;;;;;;8.67;4.30;;;11.00;99.90;;;;;;6183502;23;20197;-68
2022/09/21 20:37:50;;;;;;;9.70;4.40;;;11.00;99.90;;;;;;6184030;23;20184;-68
2022/09/21 20:40:19;;;;;;;11.37;4.40;;;11.00;99.90;;;;;;6184762;23;20220;-68
2022/09/21 20:42:46;;;;;;;7.27;4.50;;;10.90;99.90;;;;;;6185243;23;20645;-69
2022/09/21 20:45:13;;;;;;;7.73;4.47;;;10.80;99.90;;;;;;6185866;23;20202;-68
2022/09/21 20:47:40;;;;;;;8.37;4.50;;;10.80;99.90;;;;;;6185577;23;20647;-69
2022/09/21 20:50:10;;;;;;;6.50;3.90;;;10.70;99.90;;;;;;6185220;23;20215;-68
2022/09/21 20:52:38;;;;;;;10.47;4.00;;;10.60;99.90;;;;;;6185770;23;20226;-68
2022/09/21 20:55:07;;;;;;;7.17;3.63;;;10.50;99.90;;;;;;6185986;23;20197;-68
2022/09/21 20:57:35;;;;;;;7.73;3.73;;;10.60;99.90;;;;;;6185465;23;20185;-68
2022/09/21 21:00:03;;;;;;;6.77;3.63;;;10.60;99.90;;;;;;6186017;23;20177;-68
2022/09/21 21:02:30;;;;;;;9.03;3.43;;;10.70;99.90;;;;;;6185839;23;20207;-68
2022/09/21 21:04:57;;;;;;;5.23;3.10;;;10.60;99.90;;;;;;6185090;23;20263;-68
2022/09/21 21:07:24;;;;;;;7.20;3.37;;;10.70;99.90;;;;;;6185416;23;20177;-68
2022/09/21 21:09:51;;;;;;;7.50;3.50;;;10.60;99.90;;;;;;6186427;23;20215;-68
2022/09/21 21:12:18;;;;;;;6.33;3.33;;;10.70;99.90;;;;;;6185890;23;20268;-68
2022/09/21 21:14:46;;;;;;;8.83;3.30;;;10.70;99.90;;;;;;6185456;23;20188;-68
2022/09/21 21:17:14;;;;;;;5.33;2.90;;;10.60;99.90;;;;;;6185569;23;20185;-68
2022/09/21 21:19:41;;;;;;;6.53;3.20;;;10.60;99.90;;;;;;6185858;23;20637;-68
2022/09/21 21:22:08;;;;;;;5.00;2.97;;;10.50;99.90;;;;;;6186507;23;20548;-68
2022/09/21 21:24:41;;;;;;;6.50;3.53;;;10.60;99.90;;;;;;6185814;23;20177;-68
2022/09/21 21:27:12;;;;;;;8.73;4.03;;;10.60;99.90;;;;;;6186042;23;20239;-68
2022/09/21 21:29:39;;;;;;;4.90;3.03;;;10.60;99.90;;;;;;6186587;23;20464;-69
2022/09/21 21:32:07;;;;;;;6.07;3.23;;;10.60;99.90;;;;;;6186629;23;20177;-68
2022/09/21 21:34:34;;;;;;;4.97;3.00;;;10.50;99.90;;;;;;6186274;23;20177;-68
2022/09/21 21:37:01;;;;;;;5.53;3.33;;;10.40;99.90;;;;;;6186167;23;20203;-68
2022/09/21 21:39:29;;;;;;;6.77;3.20;;;10.40;99.90;;;;;;6186547;23;20177;-69
2022/09/21 21:41:56;;;;;;;5.00;3.17;;;10.30;99.90;;;;;;6186137;23;20192;-68
2022/09/21 21:44:23;;;;;;;4.97;2.80;;;10.20;99.90;;;;;;6186521;23;20177;-69
2022/09/21 21:46:52;;;;;;;4.57;2.50;;;10.20;99.90;;;;;;6186528;23;20197;-68
2022/09/21 21:49:20;;;;;;;6.27;2.70;;;10.20;99.90;;;;;;6186240;23;20227;-68
2022/09/21 21:51:48;;;;;;;7.70;2.70;;;10.10;99.90;;;;;;6186177;23;20183;-69
2022/09/21 21:54:15;;;;;;;3.77;2.40;;;10.00;99.90;;;;;;6186392;23;20183;-69
2022/09/21 21:56:41;;;;;;;6.20;2.50;;;10.00;99.90;;;;;;6186396;23;20499;-68
2022/09/21 21:59:08;;;;;;;5.17;2.47;;;10.00;99.90;;;;;;6186257;23;20181;-69
2022/09/21 22:01:38;;;;;;;4.97;2.60;;;10.00;99.90;;;;;;6186195;23;20272;-69
2022/09/21 22:04:05;;;;;;;5.43;2.90;;;10.00;99.90;;;;;;6186062;23;20188;-68
2022/09/21 22:06:35;;;;;;;8.93;2.80;;;10.00;99.90;;;;;;6185856;23;20197;-69
2022/09/21 22:09:04;;;;;;;4.90;2.83;;;10.00;99.90;;;;;;6185826;23;20653;-68
2022/09/21 22:11:31;;;;;;;4.93;2.80;;;10.00;99.90;;;;;;6185846;23;20213;-68
2022/09/21 22:13:59;;;;;;;6.13;2.87;;;10.00;99.90;;;;;;6186048;23;20181;-69
2022/09/21 22:16:28;;;;;;;6.07;3.30;;;10.10;99.90;;;;;;6186043;23;20201;-68
